Mattia Bianco

Olheiro-Chefe - Como
4 Abr 2027
Domingo
Processo

Personalidade

Adaptabilidade (4) Ambição (9) Controvérsia (3) Lealdade (13) Pressão (5) Profissionalismo (7) Espírito Esportivo (13) Temperamento (16)

Perfil

Estilo de Treinamento Democrático
Licença Continental Pro
Determinação 11
Gestão de Pessoas 6
Motivação 9
Disciplina 10
Satisfação no Trabalho
50%
Fadiga
0%
Função Olheiro-Chefe
Salário 62.4K p/s
Contrato 14.03.2029

Desempenho

Comportamento Normal
Eficácia do Treinamento
18%
Desenvolvimento do Jogador
40%
Prevenção de Lesões
60%
Implementação Tática
20%

Eventos Recentes

Participou de uma reunião de recrutamento agora
Recomendou um alvo de transferência agora
Participou de uma reunião de recrutamento agora
Recomendou um alvo de transferência agora
Recomendou um alvo de transferência agora
Avaliou um jogador agora
Avaliou um jogador agora
Avaliou um jogador agora

Monitorando agora

219
Jogador Clube Status Habilidade Confiança Observado Última observação Último voto
Andrija Bulatović RC Lens Ativo 117 / 131 40% 3 03.04.2027 -
Davinchi Getafe Ativo 115 / 127 40% 3 03.04.2027 -
Celías Ingenthron Platense Ativo 116 / 111 40% 1 03.04.2027 -
Jaydee Canvot Crystal Palace Ativo 130 / 130 40% 4 02.04.2027 -
Tylel Tati Monaco Ativo 123 / 130 40% 1 02.04.2027 -
Obed Vargas Atlético Madrid Ativo 129 / 123 40% 2 01.04.2027 -
Alexis Vossah Toulouse FC Ativo 119 / 125 40% 1 01.04.2027 -
Enzo Cardozo Almirante Brown Ativo 104 / 116 40% 3 30.03.2027 -
Alejandro Almaraz Nueva Chicago Ativo 101 / 104 40% 1 30.03.2027 -
Valentin Atangana Juventus Ativo 137 / 129 40% 1 30.03.2027 -
Sabil Hansen Randers Ativo 108 / 115 40% 1 29.03.2027 -
Lucas Jetten Cambuur Ativo 104 / 108 40% 1 29.03.2027 -
Chris Rigg Sunderland Ativo 134 / 142 40% 2 27.03.2027 -
Francisco Chissumba Braga Ativo 124 / 134 40% 3 26.03.2027 -
Jan Ziółkowski Lecce Ativo 122 / 126 40% 1 26.03.2027 -
Nicolas Sport Recife Ativo 104 / 106 40% 1 26.03.2027 -
Ronan Kpakio Preston Ativo 119 / 119 40% 2 25.03.2027 -
Rafik el Arguioui Utrecht Ativo 110 / 104 40% 2 25.03.2027 -
Eduardo Felicíssimo Sporting CP Ativo 100 / 125 40% 1 25.03.2027 -
Vinícius Lira Santos Ativo 118 / 117 40% 1 23.03.2027 -
Alexis Fretes Libertad Ativo 111 / 123 40% 1 23.03.2027 -
Daniel Banjaqui Benfica Ativo 116 / 110 40% 1 22.03.2027 -
Kyrylo Dihtiar Metalist Ativo 97 / 107 40% 1 22.03.2027 -
Saël Kumbedi VfL Wolfsburg Ativo 134 / 131 40% 3 19.03.2027 -
Freddie Simmonds Brighton Ativo 106 / 103 40% 1 19.03.2027 -
Jayden Spier Willem II Ativo 100 / 107 40% 2 18.03.2027 -
Tiago Freitas Benfica Ativo 111 / 117 40% 1 18.03.2027 -
Mathis Amougou RC Strasbourg Ativo 107 / 130 40% 1 18.03.2027 -
Axel Tape Bayer Leverkusen Ativo 125 / 135 40% 3 17.03.2027 -
Camilo Rey Domenech Boca Juniors Ativo 121 / 125 40% 2 15.03.2027 -
Kai Andrews Coventry City Ativo 104 / 111 40% 1 15.03.2027 -
Juan Pablo De la Reta Maipú Ativo 105 / 128 40% 3 14.03.2027 -
Demián Troya Lanús Ativo 100 / 105 40% 2 14.03.2027 -
Ignacio Perruzzi San Lorenzo Ativo 121 / 136 40% 1 13.03.2027 -
Gonçalo Oliveira Benfica Ativo 109 / 105 40% 1 12.03.2027 -
Cemran Dansin Orlando Pirates Ativo 109 / 124 40% 1 11.03.2027 -
Pablo Aguiar Gimnasia La Plata Ativo 105 / 114 40% 1 11.03.2027 -
Zé Lucas Corinthians Ativo 126 / 128 40% 1 09.03.2027 -
Santiago Daniele Chacarita Juniors Ativo 99 / 107 40% 1 07.03.2027 -
Chema Andrés VfB Stuttgart Ativo 134 / 146 40% 1 07.03.2027 -
Vincent Burlet Cracovia Ativo 104 / 87 40% 1 07.03.2027 -
Bahia Corinthians Ativo 108 / 110 40% 1 06.03.2027 -
Benedetti Palmeiras Ativo 99 / 120 40% 1 06.03.2027 -
Alex Tóth Bournemouth Ativo 115 / 120 40% 1 04.03.2027 -
Agustín Medina Lanús Ativo 110 / 113 40% 1 04.03.2027 -
Jobe Bellingham RB Leipzig Ativo 139 / 131 40% 1 01.03.2027 -
Thierry Rendall Correia Venezia Ativo 144 / 132 40% 1 25.01.2027 -
Hugo Rincón Athletic Bilbao Ativo 140 / 130 40% 1 25.01.2027 -
Alex Luna Instituto Ativo 128 / 143 40% 1 25.01.2027 -
Håkon Evjen Bodo/Glimt Ativo 139 / 125 40% 2 19.01.2027 -
Ardon Jashari AC Milan Ativo 136 / 133 40% 1 19.01.2027 -
Ronaldo Rostov Ativo 126 / 143 40% 1 19.01.2027 -
Tomáš Suslov Hellas Verona Ativo 130 / 144 40% 1 18.01.2027 -
Sergey Pinyaev Lokomotiv Moscow Ativo 130 / 137 40% 1 18.01.2027 -
Emil Breivik Molde Ativo 121 / 127 40% 1 18.01.2027 -
Jonathan Rowe Bologna Ativo 131 / 134 40% 3 11.01.2027 -
Giacomo Poluzzi Ravenna Relatório pronto 109 / 99 72% 1 11.01.2027 -
Rubens Dinamo Moscow Ativo 134 / 144 40% 1 11.01.2027 -
Domagoj Bradarić Hellas Verona Ativo 140 / 118 40% 1 11.01.2027 -
Jean-Luc Morin Tours Relatório pronto 138 / 140 64% 1 01.01.2027 Aprovar
Mao Hosoya Corinthians Ativo 134 / 135 67% 1 01.01.2027 Aprovar
Percy Erasmus SuperSport United Ativo 122 / 118 40% 10 30.12.2026 -
Lorenzo Insigne Sampdoria Ativo 129 / 140 40% 2 30.12.2026 -
Mohamed Mallahi Pro Vercelli Ativo 103 / 95 40% 1 30.12.2026 -
Simone Rabbi Ravenna Ativo 105 / 106 40% 4 29.12.2026 -
Alberto Cerri Cesena Ativo 121 / 108 40% 1 29.12.2026 -
Jordan Roberts Stevenage Ativo 112 / 116 40% 1 29.12.2026 -
Marco Pineda VfB Stuttgart Ativo 144 / 151 40% 5 28.12.2026 -
Jhon Córdoba Krasnodar Ativo 137 / 151 40% 2 27.12.2026 -
Duván Zapata Torino Ativo 143 / 143 40% 1 27.12.2026 -
Matteo Rover Reggiana Ativo 123 / 125 40% 1 27.12.2026 -
Mykola Haiduchyk Polissia Ativo 109 / 128 40% 1 27.12.2026 -
Lewis McCann Fleetwood Town Ativo 98 / 92 40% 1 27.12.2026 -
Manfred Ugalde Spartak Moscow Ativo 137 / 114 40% 2 26.12.2026 -
David Okereke Cremonese Ativo 119 / 118 40% 1 25.12.2026 -
Willem Geubbels Lecce Ativo 128 / 136 40% 1 25.12.2026 -
Camillo Tavernelli Arezzo Ativo 123 / 106 40% 5 23.12.2026 -
Fernando Forestieri AEL Ativo 138 / 133 40% 2 23.12.2026 -
John Okoye Ebuka Ittihad Ativo 115 / 130 40% 2 23.12.2026 -
Giovanni Simeone Torino Ativo 141 / 131 40% 2 21.12.2026 -
Egas Cacintura Akhmat Grozny Ativo 123 / 127 40% 1 21.12.2026 -
Peter Itodo Metalist Ativo 113 / 105 40% 1 20.12.2026 -
Job Ochieng Real Sociedad Ativo 106 / 98 40% 1 20.12.2026 -
David Romero Parma Ativo 123 / 129 40% 2 19.12.2026 -
Ismet Sinani Bra Ativo 84 / 77 40% 1 19.12.2026 -
Brayan León Mamelodi Sundowns Ativo 127 / 108 40% 2 17.12.2026 -
Stefano Moreo Pisa Ativo 135 / 121 40% 4 16.12.2026 -
Antoine Griezmann Orlando City Ativo 163 / 163 40% 11 15.12.2026 -
Johannes Eggestein Austria Wien Ativo 134 / 130 40% 1 15.12.2026 -
Cedric Gondo Reggiana Ativo 114 / 124 40% 1 15.12.2026 -
Carles Gil New England Revolution Ativo 143 / 152 40% 3 13.12.2026 -
Amin Sarr Hellas Verona Ativo 130 / 136 40% 3 13.12.2026 -
Josh Coburn Millwall Ativo 122 / 116 40% 3 13.12.2026 -
Assad Al Hamlawi Universitatea Craiova Ativo 114 / 107 40% 1 13.12.2026 -
Peter Shalulile Mamelodi Sundowns Ativo 127 / 111 40% 2 12.12.2026 -
Andrea Belotti Cagliari Ativo 124 / 122 40% 1 12.12.2026 -
Achraf Bencharki Al Ahly Ativo 127 / 132 40% 5 10.12.2026 -
Nicolás Fernández Belgrano Ativo 136 / 119 40% 3 10.12.2026 -
Mathias Kvistgaarden Norwich City Ativo 114 / 132 40% 3 09.12.2026 -
Mario Ravasio Arezzo Ativo 116 / 104 40% 2 09.12.2026 -
Lorent Tolaj Plymouth Argyle Ativo 123 / 117 40% 1 09.12.2026 -
Rocco Vata Watford Ativo 115 / 119 40% 1 08.12.2026 -
Nikolay Komlichenko Lokomotiv Moscow Ativo 119 / 116 40% 1 08.12.2026 -
Brayan Gil Baltika Ativo 128 / 109 40% 1 07.12.2026 -
Santiago Pierotti Lecce Ativo 123 / 121 40% 2 06.12.2026 -
Mikael Ishak Lech Ativo 124 / 123 40% 1 06.12.2026 -
Boulaye Dia Lazio Ativo 134 / 140 40% 1 06.12.2026 -
Che Adams Torino Ativo 132 / 137 40% 3 04.12.2026 -
Karlan Grant West Bromwich Albion Ativo 121 / 115 40% 2 04.12.2026 -
Denis Bouanga Los Angeles Football Club Ativo 140 / 154 40% 3 01.12.2026 -
Paxten Aaronson Colorado Rapids Ativo 135 / 146 40% 1 01.12.2026 -
Andrea Colpani Monza Ativo 131 / 143 40% 1 01.12.2026 -
Stephan El Shaarawy AS Roma Ativo 132 / 142 40% 3 30.11.2026 -
Mathias Jørgensen Blackburn Rovers Ativo 123 / 105 40% 1 30.11.2026 -
Abu Kamara Portsmouth Ativo 122 / 113 40% 1 30.11.2026 -
Allahyar Sayyadmanesh Lech Ativo 132 / 106 40% 1 30.11.2026 -
Jacques Siwe Rubin Ativo 118 / 111 40% 1 29.11.2026 -
Jovon Makama Norwich City Ativo 125 / 127 40% 1 29.11.2026 -
Iuri Tavares NK Varazdin Ativo 105 / 120 40% 1 29.11.2026 -
Alan Lescano Argentinos Juniors Ativo 123 / 142 40% 1 28.11.2026 -
Nicolás Fernández Mercau New York City Ativo 137 / 139 40% 1 28.11.2026 -
Ross Stewart Southampton Ativo 129 / 122 40% 3 26.11.2026 -
Lucas Passerini Belgrano Ativo 121 / 130 40% 2 26.11.2026 -
Jesus Ferreira Seattle Sounders Ativo 125 / 127 40% 6 25.11.2026 -
Niall Ennis Blackpool Ativo 109 / 104 40% 1 25.11.2026 -
Ignacio Russo Tigre Ativo 122 / 120 40% 4 23.11.2026 -
Talles Magno New York City Ativo 120 / 141 40% 4 22.11.2026 -
Yousef Salech Cardiff City Ativo 120 / 134 40% 5 22.11.2026 -
Moses Cobnan Krasnodar Ativo 114 / 113 40% 1 22.11.2026 -
Alex Rolfini Carpi Ativo 103 / 117 40% 1 21.11.2026 -
Federico Bernardeschi Bologna Ativo 134 / 139 40% 3 19.11.2026 -
Alexander Díaz Deportivo Riestra Ativo 113 / 112 40% 3 19.11.2026 -
Octavio Bianchi HNK Vukovar 1991 Ativo 111 / 101 40% 1 18.11.2026 -
Patrick Cutrone Monza Ativo 126 / 116 40% 1 18.11.2026 -
Luis Palma Lech Ativo 123 / 133 40% 1 17.11.2026 -
Vinko Rozić Istra 1961 Ativo 110 / 111 40% 1 17.11.2026 -
Christian Kouamé Aris Thessaloniki Ativo 135 / 117 40% 1 17.11.2026 -
Dom Ballard Leyton Orient Ativo 117 / 138 40% 3 14.11.2026 -
Haris Tabaković Red Bull Salzburg Ativo 136 / 138 40% 3 14.11.2026 -
Dejan Joveljić Seattle Sounders Ativo 132 / 135 40% 4 14.11.2026 -
Sam Greenwood Bristol City Ativo 115 / 114 40% 2 14.11.2026 -
Ramiro Ruiz Rodríguez Atlético Tucumán Ativo 124 / 131 40% 1 13.11.2026 -
Yoshan Valois Lanús Ativo 122 / 108 40% 3 12.11.2026 -
Rumarn Burrell Queens Park Rangers Ativo 120 / 120 40% 2 12.11.2026 -
Oli McBurnie Hull City Ativo 140 / 140 40% 2 11.11.2026 -
Tadeo Allende Inter Miami CF Ativo 117 / 116 40% 4 09.11.2026 -
Ştefan Baiaram Universitatea Craiova Ativo 125 / 139 40% 1 09.11.2026 -
Dion Beljo Dinamo Zagreb Ativo 131 / 133 40% 1 08.11.2026 -
Nazar Voloshyn Dynamo Kyiv Ativo 136 / 107 40% 1 08.11.2026 -
George Puşcaş Dinamo Bucharest Ativo 114 / 102 40% 1 08.11.2026 -
Matija Frigan Parma Ativo 116 / 119 40% 1 08.11.2026 -
Guilherme Houston Dynamo Ativo 129 / 128 40% 1 05.11.2026 -
Louis Munteanu DC United Ativo 128 / 113 40% 1 04.11.2026 -
Konan N'Dri Lecce Ativo 119 / 115 40% 1 04.11.2026 -
Yorbe Vertessen Red Bull Salzburg Ativo 122 / 137 40% 1 02.11.2026 -
Indiana Vassilev Philadelphia Union Ativo 115 / 136 40% 1 31.10.2026 -
Romelu Lukaku Fenerbahce Ativo 155 / 175 40% 5 29.10.2026 -
Elijah Adebayo Luton Town Ativo 126 / 114 40% 2 29.10.2026 -
Raúl Jiménez Wolverhampton Ativo 141 / 151 40% 1 29.10.2026 -
Tomás Molina Argentinos Juniors Ativo 125 / 134 40% 1 28.10.2026 -
Kévin Denkey FC Cincinnati Ativo 136 / 112 40% 3 27.10.2026 -
Mohamed Salah Trabzonspor Ativo 179 / 195 40% 4 27.10.2026 -
Talisca Fenerbahce Ativo 135 / 131 40% 1 27.10.2026 -
Enzo Copetti Rosario Central Ativo 125 / 133 40% 2 26.10.2026 -
Morgan Guilavogui Real Salt Lake Ativo 120 / 124 40% 2 26.10.2026 -
Edwuin Cetré Estudiantes Ativo 120 / 119 40% 1 25.10.2026 -
Leo Ceara Kashima Antlers Ativo 143 / 132 40% 5 23.10.2026 -
David Barbona Defensa y Justicia Ativo 123 / 118 40% 3 22.10.2026 -
Michy Fellaini KV Oostende Ativo 141 / 124 40% 1 18.10.2026 -
Josh Sargent Toronto FC Ativo 128 / 146 40% 1 18.10.2026 -
Federico Di Francesco Catanzaro Ativo 123 / 129 40% 1 18.10.2026 -
Sam Surridge Nashville SC Ativo 142 / 134 40% 3 17.10.2026 -
Antony Alonso Deportivo Riestra Ativo 121 / 127 40% 2 16.10.2026 -
Vitinha Genoa Ativo 139 / 145 40% 1 15.10.2026 -
Timo Werner San Jose Earthquakes Ativo 125 / 139 40% 2 13.10.2026 -
Michael Barrios Once Caldas Ativo 120 / 125 40% 1 11.10.2026 -
Frederik Ihler IF Elfsborg Ativo 110 / 113 40% 1 11.10.2026 -
Patrick Agyemang Derby County Ativo 129 / 135 40% 1 11.10.2026 -
Cristian Shpendi Cesena Ativo 130 / 118 40% 1 10.10.2026 Mais informações
Wessam Abou Ali Columbus Crew Ativo 122 / 119 40% 1 10.10.2026 -
Álex Arce Independiente Rivadavia Ativo 122 / 129 40% 2 08.10.2026 -
Alfredo Morelos Atletico Nacional Ativo 120 / 109 40% 1 07.10.2026 -
Zakaria Aboukhlal Torino Ativo 141 / 119 40% 1 06.10.2026 -
Luca Orellano Monterrey Ativo 145 / 131 40% 1 05.10.2026 -
Mousa Meunier KV Oostende Ativo 133 / 119 40% 2 04.10.2026 -
Nicolò Tresoldi Club Brugge Ativo 124 / 132 40% 2 30.09.2026 -
Bénie Traoré New York City Ativo 129 / 126 40% 1 30.09.2026 -
Leonardo Campana New England Revolution Ativo 123 / 143 40% 1 29.09.2026 -
Diber Cambindo Leon Ativo 122 / 129 40% 1 29.09.2026 -
Jefry Zapata Once Caldas Ativo 125 / 123 40% 1 28.09.2026 -
Cesar Corona Veracruz Ativo 145 / 145 40% 4 27.09.2026 -
Abel Hernández Penarol Ativo 132 / 129 40% 1 27.09.2026 -
Henry Martín Club America Ativo 140 / 130 40% 1 23.09.2026 -
Ignacio Ramírez Newell's Old Boys Ativo 120 / 122 40% 2 22.09.2026 -
Marko Livaja Hajduk Split Ativo 137 / 129 40% 1 22.09.2026 -
Leonardo Castro Millonarios Ativo 127 / 119 40% 2 21.09.2026 -
Adriano Bertaccini Anderlecht Ativo 123 / 126 40% 1 20.09.2026 -
Tomás Chancalay Minnesota United FC Ativo 122 / 105 40% 1 20.09.2026 -
João Klauss LA Galaxy Ativo 128 / 109 40% 1 20.09.2026 -
Archie Goodwin Charlotte Football Club Ativo 102 / 103 40% 1 20.09.2026 -
Daniel Karlsbakk Sarpsborg 08 Ativo 127 / 121 40% 1 20.09.2026 -
Alexis Vega Toluca Ativo 145 / 145 40% 2 17.09.2026 -
Brandon Vázquez Austin FC Ativo 125 / 130 40% 1 16.09.2026 -
Favio Cabral Mitre Ativo 115 / 106 40% 1 16.09.2026 -
Ibrahim Aliyu Houston Dynamo Ativo 122 / 100 40% 1 15.09.2026 -
Agustín Venezia Iquique Ativo 114 / 119 40% 1 11.09.2026 -
Diego Rossi Monterrey Ativo 140 / 112 40% 1 11.09.2026 -
Francisco Fydriszewski Junior Ativo 122 / 130 40% 1 07.09.2026 -
Ayoub Jabbari FC Cincinnati Ativo 106 / 125 40% 2 07.09.2026 -
Marco Miori Alvarado Ativo 104 / 124 40% 1 07.09.2026 -
Luis Muriel Junior Ativo 128 / 125 40% 1 05.09.2026 -
Iqraam Rayners Mamelodi Sundowns Ativo 121 / 111 40% 1 03.09.2026 -
Anthony Lozano Santos Laguna Ativo 125 / 118 40% 1 02.09.2026 -
Thomas Müller Vancouver Whitecaps Ativo 154 / 132 40% 1 01.09.2026 -
Martín Ojeda Orlando City Ativo 136 / 145 40% 1 01.09.2026 -
Abdoulaye Ndiaye Parma Ativo 115 / 130 72% 1 03.08.2026 Aprovar
Robin Lod Chicago Fire Ativo 116 / 121 40% 1 02.08.2026 -
Luca Langoni New England Revolution Ativo 124 / 131 40% 1 02.08.2026 -
Gianluca Scamacca Atalanta Ativo 137 / 157 40% 1 01.08.2026 -